sensor_id;sensor_type;location;lat;lon;timestamp;pressure;altitude;pressure_sealevel;temperature;humidity
4981;BME280;2507;50.392;7.482;2023-03-20T00:00:43;101035.81;;;12.42;81.57
4981;BME280;2507;50.392;7.482;2023-03-20T00:03:10;101039.84;;;12.35;81.50
4981;BME280;2507;50.392;7.482;2023-03-20T00:05:36;101043.13;;;12.26;81.70
4981;BME280;2507;50.392;7.482;2023-03-20T00:08:01;101031.13;;;12.22;81.34
4981;BME280;2507;50.392;7.482;2023-03-20T00:10:34;101032.84;;;12.10;80.91
4981;BME280;2507;50.392;7.482;2023-03-20T00:13:00;101035.69;;;12.07;80.91
4981;BME280;2507;50.392;7.482;2023-03-20T00:15:29;101040.88;;;12.09;80.12
4981;BME280;2507;50.392;7.482;2023-03-20T00:17:56;101045.69;;;12.02;79.39
4981;BME280;2507;50.392;7.482;2023-03-20T00:20:22;101048.22;;;12.04;79.00
4981;BME280;2507;50.392;7.482;2023-03-20T00:22:48;101059.81;;;12.01;78.60
4981;BME280;2507;50.392;7.482;2023-03-20T00:25:16;101061.69;;;11.99;78.59
4981;BME280;2507;50.392;7.482;2023-03-20T00:27:42;101062.53;;;12.00;78.34
4981;BME280;2507;50.392;7.482;2023-03-20T00:30:19;101064.13;;;11.90;78.01
4981;BME280;2507;50.392;7.482;2023-03-20T00:32:47;101066.84;;;11.88;78.51
4981;BME280;2507;50.392;7.482;2023-03-20T00:35:18;101076.22;;;11.80;79.14
4981;BME280;2507;50.392;7.482;2023-03-20T00:37:43;101076.22;;;11.80;78.71
4981;BME280;2507;50.392;7.482;2023-03-20T00:40:09;101073.66;;;11.78;79.05
4981;BME280;2507;50.392;7.482;2023-03-20T00:42:35;101083.47;;;11.76;78.87
4981;BME280;2507;50.392;7.482;2023-03-20T00:45:01;101077.47;;;11.74;79.17
4981;BME280;2507;50.392;7.482;2023-03-20T00:47:27;101083.88;;;11.70;79.20
4981;BME280;2507;50.392;7.482;2023-03-20T00:49:53;101090.06;;;11.69;79.45
4981;BME280;2507;50.392;7.482;2023-03-20T00:52:21;101088.19;;;11.71;79.36
4981;BME280;2507;50.392;7.482;2023-03-20T00:54:46;101087.88;;;11.76;79.18
4981;BME280;2507;50.392;7.482;2023-03-20T00:57:38;101089.44;;;11.66;79.81
4981;BME280;2507;50.392;7.482;2023-03-20T01:00:07;101099.19;;;11.64;79.91
4981;BME280;2507;50.392;7.482;2023-03-20T01:02:38;101098.91;;;11.68;79.75
4981;BME280;2507;50.392;7.482;2023-03-20T01:05:04;101096.19;;;11.70;79.57
4981;BME280;2507;50.392;7.482;2023-03-20T01:07:29;101096.28;;;11.68;79.54
4981;BME280;2507;50.392;7.482;2023-03-20T01:09:55;101107.53;;;11.70;79.25
4981;BME280;2507;50.392;7.482;2023-03-20T01:12:20;101109.66;;;11.65;79.96
4981;BME280;2507;50.392;7.482;2023-03-20T01:14:51;101110.66;;;11.63;80.24
4981;BME280;2507;50.392;7.482;2023-03-20T01:17:19;101120.53;;;11.59;80.52
4981;BME280;2507;50.392;7.482;2023-03-20T01:19:45;101121.16;;;11.63;80.30
4981;BME280;2507;50.392;7.482;2023-03-20T01:22:10;101124.09;;;11.58;80.43
4981;BME280;2507;50.392;7.482;2023-03-20T01:24:38;101122.53;;;11.56;80.88
4981;BME280;2507;50.392;7.482;2023-03-20T01:27:04;101130.19;;;11.59;80.85
4981;BME280;2507;50.392;7.482;2023-03-20T01:29:32;101129.91;;;11.37;80.45
4981;BME280;2507;50.392;7.482;2023-03-20T01:31:57;101132.81;;;11.19;81.20
4981;BME280;2507;50.392;7.482;2023-03-20T01:34:23;101136.31;;;11.06;82.07
4981;BME280;2507;50.392;7.482;2023-03-20T01:36:56;101140.19;;;11.00;82.71
4981;BME280;2507;50.392;7.482;2023-03-20T01:39:29;101148.72;;;11.04;82.66
4981;BME280;2507;50.392;7.482;2023-03-20T01:41:55;101146.56;;;11.10;82.76
4981;BME280;2507;50.392;7.482;2023-03-20T01:44:24;101143.50;;;11.16;81.96
4981;BME280;2507;50.392;7.482;2023-03-20T01:46:51;101144.84;;;11.09;82.26
4981;BME280;2507;50.392;7.482;2023-03-20T01:51:43;101139.38;;;11.00;82.43
4981;BME280;2507;50.392;7.482;2023-03-20T01:54:13;101141.88;;;11.01;82.39
4981;BME280;2507;50.392;7.482;2023-03-20T01:56:45;101140.44;;;11.10;81.97
4981;BME280;2507;50.392;7.482;2023-03-20T01:59:22;101134.00;;;11.01;81.80
4981;BME280;2507;50.392;7.482;2023-03-20T02:01:49;101137.50;;;10.88;81.96
4981;BME280;2507;50.392;7.482;2023-03-20T02:04:16;101138.72;;;10.82;82.15
4981;BME280;2507;50.392;7.482;2023-03-20T02:06:44;101141.53;;;10.93;82.08
4981;BME280;2507;50.392;7.482;2023-03-20T02:09:10;101138.03;;;10.93;81.64
4981;BME280;2507;50.392;7.482;2023-03-20T02:11:37;101146.03;;;10.91;81.88
4981;BME280;2507;50.392;7.482;2023-03-20T02:14:04;101132.56;;;11.10;80.99
4981;BME280;2507;50.392;7.482;2023-03-20T02:16:30;101127.41;;;11.08;80.89
4981;BME280;2507;50.392;7.482;2023-03-20T02:18:57;101131.81;;;11.08;80.83
4981;BME280;2507;50.392;7.482;2023-03-20T02:21:51;101124.78;;;11.08;80.97
4981;BME280;2507;50.392;7.482;2023-03-20T02:27:21;101105.41;;;11.23;80.29
4981;BME280;2507;50.392;7.482;2023-03-20T02:44:08;101100.63;;;11.03;79.63
4981;BME280;2507;50.392;7.482;2023-03-20T02:46:41;101112.63;;;10.93;78.83
4981;BME280;2507;50.392;7.482;2023-03-20T02:51:54;101119.97;;;10.88;79.73
4981;BME280;2507;50.392;7.482;2023-03-20T02:54:48;101128.59;;;10.90;80.03
4981;BME280;2507;50.392;7.482;2023-03-20T03:00:08;101130.09;;;10.94;78.98
4981;BME280;2507;50.392;7.482;2023-03-20T03:03:06;101132.25;;;10.88;78.61
4981;BME280;2507;50.392;7.482;2023-03-20T03:05:35;101142.78;;;10.74;79.17
4981;BME280;2507;50.392;7.482;2023-03-20T03:08:03;101144.75;;;10.70;79.55
4981;BME280;2507;50.392;7.482;2023-03-20T03:10:33;101147.28;;;10.72;80.02
4981;BME280;2507;50.392;7.482;2023-03-20T03:13:02;101143.88;;;10.84;79.90
4981;BME280;2507;50.392;7.482;2023-03-20T03:15:36;101138.34;;;10.88;79.36
4981;BME280;2507;50.392;7.482;2023-03-20T03:18:04;101139.09;;;10.90;79.42
4981;BME280;2507;50.392;7.482;2023-03-20T03:20:37;101133.06;;;11.02;78.51
4981;BME280;2507;50.392;7.482;2023-03-20T03:23:04;101132.41;;;10.99;79.09
4981;BME280;2507;50.392;7.482;2023-03-20T03:25:34;101133.47;;;11.23;78.66
4981;BME280;2507;50.392;7.482;2023-03-20T03:28:18;101142.88;;;11.40;76.72
4981;BME280;2507;50.392;7.482;2023-03-20T03:30:47;101134.31;;;11.23;77.20
4981;BME280;2507;50.392;7.482;2023-03-20T03:33:18;101118.69;;;11.08;77.76
4981;BME280;2507;50.392;7.482;2023-03-20T03:35:46;101114.28;;;11.08;78.72
4981;BME280;2507;50.392;7.482;2023-03-20T03:40:43;101121.59;;;11.30;76.63
4981;BME280;2507;50.392;7.482;2023-03-20T03:43:16;101132.66;;;11.35;77.03
4981;BME280;2507;50.392;7.482;2023-03-20T03:45:47;101137.47;;;11.28;76.85
4981;BME280;2507;50.392;7.482;2023-03-20T03:48:17;101139.56;;;11.23;77.41
4981;BME280;2507;50.392;7.482;2023-03-20T03:50:52;101145.16;;;11.31;77.81
4981;BME280;2507;50.392;7.482;2023-03-20T03:53:24;101159.19;;;11.45;76.55
4981;BME280;2507;50.392;7.482;2023-03-20T03:55:54;101155.53;;;11.47;76.76
4981;BME280;2507;50.392;7.482;2023-03-20T03:58:39;101153.84;;;11.59;76.37
4981;BME280;2507;50.392;7.482;2023-03-20T04:01:06;101156.06;;;11.52;76.10
4981;BME280;2507;50.392;7.482;2023-03-20T04:03:38;101157.28;;;11.47;75.93
4981;BME280;2507;50.392;7.482;2023-03-20T04:06:06;101156.41;;;11.33;76.63
4981;BME280;2507;50.392;7.482;2023-03-20T04:08:34;101153.50;;;11.38;76.57
4981;BME280;2507;50.392;7.482;2023-03-20T04:10:59;101160.56;;;11.50;76.65
4981;BME280;2507;50.392;7.482;2023-03-20T04:13:24;101169.16;;;11.66;76.02
4981;BME280;2507;50.392;7.482;2023-03-20T04:15:50;101178.03;;;11.78;75.79
4981;BME280;2507;50.392;7.482;2023-03-20T04:18:17;101168.97;;;11.82;75.11
4981;BME280;2507;50.392;7.482;2023-03-20T04:20:43;101162.88;;;11.81;75.14
4981;BME280;2507;50.392;7.482;2023-03-20T04:23:09;101143.97;;;11.89;74.52
4981;BME280;2507;50.392;7.482;2023-03-20T04:25:34;101139.97;;;11.96;74.75
4981;BME280;2507;50.392;7.482;2023-03-20T04:28:00;101137.97;;;11.99;74.38
4981;BME280;2507;50.392;7.482;2023-03-20T04:30:25;101132.72;;;11.99;73.62
4981;BME280;2507;50.392;7.482;2023-03-20T04:32:51;101129.22;;;11.99;73.81
4981;BME280;2507;50.392;7.482;2023-03-20T04:35:16;101131.56;;;12.03;73.74
4981;BME280;2507;50.392;7.482;2023-03-20T04:37:41;101139.97;;;12.08;73.56
4981;BME280;2507;50.392;7.482;2023-03-20T04:40:07;101133.22;;;12.04;73.20
4981;BME280;2507;50.392;7.482;2023-03-20T04:42:32;101129.84;;;11.90;73.05
4981;BME280;2507;50.392;7.482;2023-03-20T04:44:57;101142.25;;;11.88;72.92
4981;BME280;2507;50.392;7.482;2023-03-20T04:47:23;101149.00;;;11.79;73.18
4981;BME280;2507;50.392;7.482;2023-03-20T04:49:48;101163.78;;;11.68;73.87
4981;BME280;2507;50.392;7.482;2023-03-20T04:52:13;101160.50;;;11.64;73.79
4981;BME280;2507;50.392;7.482;2023-03-20T04:54:39;101159.75;;;11.62;74.42
4981;BME280;2507;50.392;7.482;2023-03-20T04:57:04;101155.06;;;11.67;74.34
4981;BME280;2507;50.392;7.482;2023-03-20T04:59:29;101156.53;;;11.71;74.16
4981;BME280;2507;50.392;7.482;2023-03-20T05:01:55;101156.25;;;11.76;73.78
4981;BME280;2507;50.392;7.482;2023-03-20T05:04:20;101159.06;;;11.73;73.97
4981;BME280;2507;50.392;7.482;2023-03-20T05:06:46;101152.56;;;11.78;74.32
4981;BME280;2507;50.392;7.482;2023-03-20T05:09:13;101154.66;;;11.86;74.23
4981;BME280;2507;50.392;7.482;2023-03-20T05:11:39;101140.72;;;11.98;73.50
4981;BME280;2507;50.392;7.482;2023-03-20T05:14:04;101153.00;;;11.97;73.40
4981;BME280;2507;50.392;7.482;2023-03-20T05:16:31;101156.56;;;11.84;73.33
4981;BME280;2507;50.392;7.482;2023-03-20T05:18:56;101149.41;;;11.86;73.70
4981;BME280;2507;50.392;7.482;2023-03-20T05:21:21;101159.63;;;11.90;72.99
4981;BME280;2507;50.392;7.482;2023-03-20T05:23:46;101145.75;;;11.88;73.57
4981;BME280;2507;50.392;7.482;2023-03-20T05:26:12;101145.75;;;11.88;73.17
4981;BME280;2507;50.392;7.482;2023-03-20T05:28:37;101146.59;;;11.89;73.30
4981;BME280;2507;50.392;7.482;2023-03-20T05:31:02;101139.34;;;11.92;72.96
4981;BME280;2507;50.392;7.482;2023-03-20T05:33:28;101137.63;;;11.91;73.06
4981;BME280;2507;50.392;7.482;2023-03-20T05:35:53;101143.34;;;11.98;73.20
4981;BME280;2507;50.392;7.482;2023-03-20T05:38:18;101150.28;;;11.99;72.93
4981;BME280;2507;50.392;7.482;2023-03-20T05:40:47;101147.00;;;11.95;73.06
4981;BME280;2507;50.392;7.482;2023-03-20T05:43:12;101140.50;;;12.01;73.10
4981;BME280;2507;50.392;7.482;2023-03-20T05:45:38;101145.00;;;11.99;72.55
4981;BME280;2507;50.392;7.482;2023-03-20T05:48:03;101144.91;;;12.00;72.85
4981;BME280;2507;50.392;7.482;2023-03-20T05:50:28;101144.78;;;12.02;72.60
4981;BME280;2507;50.392;7.482;2023-03-20T05:52:54;101151.75;;;12.03;72.63
4981;BME280;2507;50.392;7.482;2023-03-20T05:55:19;101142.91;;;12.04;72.50
4981;BME280;2507;50.392;7.482;2023-03-20T05:57:45;101147.53;;;12.00;72.90
4981;BME280;2507;50.392;7.482;2023-03-20T06:00:10;101140.09;;;11.94;72.84
4981;BME280;2507;50.392;7.482;2023-03-20T06:02:36;101137.97;;;11.99;72.88
4981;BME280;2507;50.392;7.482;2023-03-20T06:05:02;101142.38;;;11.99;72.17
4981;BME280;2507;50.392;7.482;2023-03-20T06:07:27;101132.09;;;11.96;72.09
4981;BME280;2507;50.392;7.482;2023-03-20T06:09:53;101127.13;;;11.91;72.52
4981;BME280;2507;50.392;7.482;2023-03-20T06:12:19;101134.28;;;11.89;72.87
4981;BME280;2507;50.392;7.482;2023-03-20T06:14:44;101129.22;;;11.99;72.70
4981;BME280;2507;50.392;7.482;2023-03-20T06:17:09;101131.13;;;11.97;72.87
4981;BME280;2507;50.392;7.482;2023-03-20T06:19:35;101135.75;;;12.06;72.19
4981;BME280;2507;50.392;7.482;2023-03-20T06:22:01;101142.91;;;12.16;72.17
4981;BME280;2507;50.392;7.482;2023-03-20T06:24:26;101142.06;;;12.41;72.17
4981;BME280;2507;50.392;7.482;2023-03-20T06:26:51;101136.25;;;12.61;70.83
4981;BME280;2507;50.392;7.482;2023-03-20T06:29:17;101138.00;;;12.73;70.19
4981;BME280;2507;50.392;7.482;2023-03-20T06:31:42;101147.28;;;12.66;70.07
4981;BME280;2507;50.392;7.482;2023-03-20T06:34:07;101151.47;;;12.81;70.10
4981;BME280;2507;50.392;7.482;2023-03-20T06:36:33;101153.09;;;12.95;69.38
4981;BME280;2507;50.392;7.482;2023-03-20T06:38:58;101161.75;;;12.97;68.72
4981;BME280;2507;50.392;7.482;2023-03-20T06:41:23;101157.63;;;13.05;69.20
4981;BME280;2507;50.392;7.482;2023-03-20T06:43:49;101159.91;;;13.22;68.28
4981;BME280;2507;50.392;7.482;2023-03-20T06:46:14;101159.22;;;13.31;68.06
4981;BME280;2507;50.392;7.482;2023-03-20T06:48:39;101162.47;;;13.59;67.56
4981;BME280;2507;50.392;7.482;2023-03-20T06:51:05;101163.13;;;13.73;65.93
4981;BME280;2507;50.392;7.482;2023-03-20T06:53:31;101163.41;;;13.81;65.67
4981;BME280;2507;50.392;7.482;2023-03-20T06:55:57;101164.03;;;13.96;64.63
4981;BME280;2507;50.392;7.482;2023-03-20T06:58:22;101160.34;;;14.09;63.54
4981;BME280;2507;50.392;7.482;2023-03-20T07:00:47;101164.53;;;14.01;63.77
4981;BME280;2507;50.392;7.482;2023-03-20T07:03:13;101162.34;;;13.95;64.06
4981;BME280;2507;50.392;7.482;2023-03-20T07:05:38;101160.53;;;13.84;64.18
4981;BME280;2507;50.392;7.482;2023-03-20T07:08:04;101159.91;;;13.81;64.76
4981;BME280;2507;50.392;7.482;2023-03-20T07:10:30;101174.97;;;13.68;65.19
4981;BME280;2507;50.392;7.482;2023-03-20T07:12:56;101156.09;;;13.50;66.03
4981;BME280;2507;50.392;7.482;2023-03-20T07:15:21;101162.16;;;13.63;65.58
4981;BME280;2507;50.392;7.482;2023-03-20T07:17:46;101153.88;;;13.68;65.17
4981;BME280;2507;50.392;7.482;2023-03-20T07:20:12;101169.91;;;13.88;64.20
4981;BME280;2507;50.392;7.482;2023-03-20T07:22:38;101154.13;;;14.21;63.94
4981;BME280;2507;50.392;7.482;2023-03-20T07:25:06;101157.16;;;14.28;63.05
4981;BME280;2507;50.392;7.482;2023-03-20T07:27:32;101160.47;;;14.19;63.28
4981;BME280;2507;50.392;7.482;2023-03-20T07:29:57;101163.47;;;14.03;63.31
4981;BME280;2507;50.392;7.482;2023-03-20T07:32:22;101163.91;;;14.32;62.59
4981;BME280;2507;50.392;7.482;2023-03-20T07:34:48;101166.53;;;14.32;62.49
4981;BME280;2507;50.392;7.482;2023-03-20T07:37:14;101163.53;;;13.80;63.10
4981;BME280;2507;50.392;7.482;2023-03-20T07:39:40;101167.47;;;13.74;64.51
4981;BME280;2507;50.392;7.482;2023-03-20T07:42:05;101163.72;;;13.77;63.62
4981;BME280;2507;50.392;7.482;2023-03-20T07:44:30;101164.41;;;13.68;63.83
4981;BME280;2507;50.392;7.482;2023-03-20T07:46:56;101166.94;;;13.69;64.11
4981;BME280;2507;50.392;7.482;2023-03-20T07:49:21;101174.75;;;13.71;63.70
4981;BME280;2507;50.392;7.482;2023-03-20T07:51:47;101181.34;;;13.42;64.67
4981;BME280;2507;50.392;7.482;2023-03-20T07:54:13;101181.44;;;13.40;65.05
4981;BME280;2507;50.392;7.482;2023-03-20T07:56:39;101185.06;;;13.74;64.52
4981;BME280;2507;50.392;7.482;2023-03-20T07:59:04;101182.56;;;13.72;64.00
4981;BME280;2507;50.392;7.482;2023-03-20T08:01:30;101198.72;;;13.44;65.13
4981;BME280;2507;50.392;7.482;2023-03-20T08:03:55;101205.78;;;13.44;65.41
4981;BME280;2507;50.392;7.482;2023-03-20T08:06:20;101198.38;;;13.25;66.71
4981;BME280;2507;50.392;7.482;2023-03-20T08:08:46;101196.81;;;13.22;66.69
4981;BME280;2507;50.392;7.482;2023-03-20T08:11:12;101189.69;;;13.36;66.38
4981;BME280;2507;50.392;7.482;2023-03-20T08:13:37;101195.84;;;13.94;65.26
4981;BME280;2507;50.392;7.482;2023-03-20T08:16:03;101236.66;;;14.36;63.92
4981;BME280;2507;50.392;7.482;2023-03-20T08:18:28;101200.03;;;14.43;63.78
4981;BME280;2507;50.392;7.482;2023-03-20T08:20:54;101201.72;;;14.32;63.80
4981;BME280;2507;50.392;7.482;2023-03-20T08:23:20;101197.50;;;14.41;64.55
4981;BME280;2507;50.392;7.482;2023-03-20T08:25:47;101195.34;;;15.12;62.28
4981;BME280;2507;50.392;7.482;2023-03-20T08:28:12;101198.94;;;15.11;60.89
4981;BME280;2507;50.392;7.482;2023-03-20T08:30:37;101208.88;;;15.30;61.04
4981;BME280;2507;50.392;7.482;2023-03-20T08:33:03;101209.09;;;15.49;59.96
4981;BME280;2507;50.392;7.482;2023-03-20T08:35:28;101211.53;;;15.41;59.91
4981;BME280;2507;50.392;7.482;2023-03-20T08:37:53;101211.44;;;15.74;59.35
4981;BME280;2507;50.392;7.482;2023-03-20T08:40:18;101213.75;;;15.57;58.44
4981;BME280;2507;50.392;7.482;2023-03-20T08:42:44;101208.63;;;15.44;57.70
4981;BME280;2507;50.392;7.482;2023-03-20T08:45:10;101205.59;;;15.60;57.52
4981;BME280;2507;50.392;7.482;2023-03-20T08:47:36;101206.66;;;15.89;57.62
4981;BME280;2507;50.392;7.482;2023-03-20T08:50:01;101201.84;;;16.14;57.13
4981;BME280;2507;50.392;7.482;2023-03-20T08:52:27;101206.22;;;16.25;55.82
4981;BME280;2507;50.392;7.482;2023-03-20T08:54:52;101200.84;;;16.36;54.86
4981;BME280;2507;50.392;7.482;2023-03-20T08:57:17;101209.25;;;16.41;54.34
4981;BME280;2507;50.392;7.482;2023-03-20T08:59:43;101213.56;;;15.49;57.32
4981;BME280;2507;50.392;7.482;2023-03-20T09:02:10;101222.72;;;15.22;60.10
4981;BME280;2507;50.392;7.482;2023-03-20T09:04:35;101220.69;;;14.93;60.76
4981;BME280;2507;50.392;7.482;2023-03-20T09:07:01;101221.06;;;14.66;61.76
4981;BME280;2507;50.392;7.482;2023-03-20T09:09:27;101220.81;;;14.80;61.09
4981;BME280;2507;50.392;7.482;2023-03-20T09:11:54;101227.88;;;15.02;58.79
4981;BME280;2507;50.392;7.482;2023-03-20T09:14:19;101223.72;;;15.64;57.29
4981;BME280;2507;50.392;7.482;2023-03-20T09:16:45;101221.63;;;15.79;55.06
4981;BME280;2507;50.392;7.482;2023-03-20T09:19:11;101223.50;;;15.88;52.46
4981;BME280;2507;50.392;7.482;2023-03-20T09:21:36;101226.81;;;16.01;51.46
4981;BME280;2507;50.392;7.482;2023-03-20T09:24:01;101222.78;;;15.86;48.91
4981;BME280;2507;50.392;7.482;2023-03-20T09:26:27;101212.38;;;15.19;49.67
4981;BME280;2507;50.392;7.482;2023-03-20T09:28:52;101216.13;;;14.84;50.62
4981;BME280;2507;50.392;7.482;2023-03-20T09:31:17;101227.06;;;14.79;50.58
4981;BME280;2507;50.392;7.482;2023-03-20T09:33:43;101225.00;;;15.16;50.30
4981;BME280;2507;50.392;7.482;2023-03-20T09:36:08;101222.56;;;15.35;49.70
4981;BME280;2507;50.392;7.482;2023-03-20T09:38:36;101228.94;;;15.86;49.04
4981;BME280;2507;50.392;7.482;2023-03-20T09:41:02;101228.91;;;15.55;48.96
4981;BME280;2507;50.392;7.482;2023-03-20T09:43:54;101231.00;;;15.83;48.58
4981;BME280;2507;50.392;7.482;2023-03-20T09:51:42;101233.22;;;15.67;48.85
4981;BME280;2507;50.392;7.482;2023-03-20T09:54:33;101239.88;;;15.39;49.10
4981;BME280;2507;50.392;7.482;2023-03-20T09:57:01;101238.69;;;15.54;49.80
4981;BME280;2507;50.392;7.482;2023-03-20T09:59:28;101234.84;;;15.79;48.68
4981;BME280;2507;50.392;7.482;2023-03-20T10:02:01;101234.31;;;15.96;47.69
4981;BME280;2507;50.392;7.482;2023-03-20T10:04:29;101240.41;;;15.96;47.31
4981;BME280;2507;50.392;7.482;2023-03-20T10:06:55;101251.69;;;16.09;47.20
4981;BME280;2507;50.392;7.482;2023-03-20T10:09:25;101237.84;;;16.06;47.05
4981;BME280;2507;50.392;7.482;2023-03-20T10:14:55;101246.72;;;16.16;46.10
4981;BME280;2507;50.392;7.482;2023-03-20T10:20:00;101247.38;;;16.08;45.94
4981;BME280;2507;50.392;7.482;2023-03-20T10:22:41;101238.16;;;16.23;45.35
4981;BME280;2507;50.392;7.482;2023-03-20T10:27:45;101232.25;;;16.91;44.69
4981;BME280;2507;50.392;7.482;2023-03-20T10:41:17;101206.69;;;16.51;42.79
4981;BME280;2507;50.392;7.482;2023-03-20T10:43:46;101216.84;;;16.34;42.75
4981;BME280;2507;50.392;7.482;2023-03-20T10:46:26;101212.09;;;16.28;43.04
4981;BME280;2507;50.392;7.482;2023-03-20T10:49:17;101209.56;;;16.68;42.40
4981;BME280;2507;50.392;7.482;2023-03-20T10:51:50;101209.56;;;16.68;41.98
4981;BME280;2507;50.392;7.482;2023-03-20T10:54:37;101200.28;;;16.93;41.71
4981;BME280;2507;50.392;7.482;2023-03-20T10:57:05;101206.28;;;16.55;41.41
4981;BME280;2507;50.392;7.482;2023-03-20T10:59:43;101199.16;;;16.35;42.26
4981;BME280;2507;50.392;7.482;2023-03-20T11:02:14;101201.66;;;16.87;41.36
4981;BME280;2507;50.392;7.482;2023-03-20T11:04:40;101199.38;;;16.73;41.35
4981;BME280;2507;50.392;7.482;2023-03-20T11:07:23;101196.50;;;16.86;41.55
4981;BME280;2507;50.392;7.482;2023-03-20T11:12:42;101192.09;;;16.66;41.33
4981;BME280;2507;50.392;7.482;2023-03-20T11:15:22;101197.44;;;16.75;40.66
4981;BME280;2507;50.392;7.482;2023-03-20T11:18:03;101197.63;;;16.83;40.20
4981;BME280;2507;50.392;7.482;2023-03-20T11:20:35;101193.59;;;16.89;39.30
4981;BME280;2507;50.392;7.482;2023-03-20T11:23:03;101188.53;;;16.76;40.41
4981;BME280;2507;50.392;7.482;2023-03-20T11:25:32;101191.41;;;17.13;39.45
4981;BME280;2507;50.392;7.482;2023-03-20T11:28:18;101183.66;;;16.81;40.37
4981;BME280;2507;50.392;7.482;2023-03-20T11:30:44;101178.41;;;16.61;40.27
4981;BME280;2507;50.392;7.482;2023-03-20T11:33:09;101185.41;;;16.71;40.75
4981;BME280;2507;50.392;7.482;2023-03-20T11:35:35;101186.84;;;16.75;40.88
4981;BME280;2507;50.392;7.482;2023-03-20T11:38:12;101184.06;;;16.77;40.10
4981;BME280;2507;50.392;7.482;2023-03-20T11:40:38;101180.34;;;16.89;39.63
4981;BME280;2507;50.392;7.482;2023-03-20T11:43:11;101182.66;;;17.12;40.21
4981;BME280;2507;50.392;7.482;2023-03-20T11:45:59;101180.81;;;17.13;40.84
4981;BME280;2507;50.392;7.482;2023-03-20T11:48:36;101179.44;;;17.18;40.30
4981;BME280;2507;50.392;7.482;2023-03-20T11:51:04;101173.06;;;17.30;39.26
4981;BME280;2507;50.392;7.482;2023-03-20T11:53:33;101176.94;;;17.46;39.81
4981;BME280;2507;50.392;7.482;2023-03-20T11:56:02;101179.66;;;17.55;38.54
4981;BME280;2507;50.392;7.482;2023-03-20T11:58:28;101178.09;;;17.43;39.55
4981;BME280;2507;50.392;7.482;2023-03-20T12:00:54;101168.75;;;17.77;39.30
4981;BME280;2507;50.392;7.482;2023-03-20T12:03:43;101158.28;;;17.57;38.32
4981;BME280;2507;50.392;7.482;2023-03-20T12:06:15;101156.84;;;17.14;38.14
4981;BME280;2507;50.392;7.482;2023-03-20T12:08:45;101156.06;;;16.54;38.48
4981;BME280;2507;50.392;7.482;2023-03-20T12:14:29;101153.50;;;16.22;38.12
4981;BME280;2507;50.392;7.482;2023-03-20T12:17:18;101157.06;;;16.53;38.19
4981;BME280;2507;50.392;7.482;2023-03-20T12:19:46;101162.94;;;16.35;37.27
4981;BME280;2507;50.392;7.482;2023-03-20T12:22:21;101156.63;;;16.06;36.89
4981;BME280;2507;50.392;7.482;2023-03-20T12:25:15;101157.97;;;15.80;37.65
4981;BME280;2507;50.392;7.482;2023-03-20T12:27:46;101157.91;;;15.71;38.64
4981;BME280;2507;50.392;7.482;2023-03-20T12:30:24;101161.91;;;15.65;42.61
4981;BME280;2507;50.392;7.482;2023-03-20T12:35:43;101151.38;;;15.54;45.02
4981;BME280;2507;50.392;7.482;2023-03-20T12:38:23;101142.97;;;15.70;45.09
4981;BME280;2507;50.392;7.482;2023-03-20T12:40:54;101139.06;;;15.85;45.00
4981;BME280;2507;50.392;7.482;2023-03-20T12:43:25;101121.97;;;15.89;44.97
4981;BME280;2507;50.392;7.482;2023-03-20T12:46:04;101134.63;;;15.85;45.34
4981;BME280;2507;50.392;7.482;2023-03-20T12:48:43;101133.06;;;15.83;42.27
4981;BME280;2507;50.392;7.482;2023-03-20T12:53:58;101132.41;;;15.70;38.26
4981;BME280;2507;50.392;7.482;2023-03-20T12:56:46;101124.84;;;15.33;38.20
4981;BME280;2507;50.392;7.482;2023-03-20T12:59:37;101127.34;;;15.03;38.93
4981;BME280;2507;50.392;7.482;2023-03-20T13:08:02;101126.56;;;14.70;39.28
4981;BME280;2507;50.392;7.482;2023-03-20T13:11:04;101127.41;;;14.70;39.50
4981;BME280;2507;50.392;7.482;2023-03-20T13:16:47;101122.28;;;15.00;38.15
4981;BME280;2507;50.392;7.482;2023-03-20T13:19:48;101117.88;;;15.32;38.53
4981;BME280;2507;50.392;7.482;2023-03-20T13:22:44;101124.78;;;15.56;38.67
4981;BME280;2507;50.392;7.482;2023-03-20T13:28:08;101117.34;;;15.50;39.61
4981;BME280;2507;50.392;7.482;2023-03-20T13:30:43;101114.72;;;15.38;39.36
4981;BME280;2507;50.392;7.482;2023-03-20T13:35:43;101098.28;;;15.67;40.37
4981;BME280;2507;50.392;7.482;2023-03-20T13:38:26;101091.16;;;15.88;40.67
4981;BME280;2507;50.392;7.482;2023-03-20T13:40:57;101098.84;;;15.38;40.82
4981;BME280;2507;50.392;7.482;2023-03-20T13:43:30;101108.72;;;15.05;42.83
4981;BME280;2507;50.392;7.482;2023-03-20T13:46:03;101104.63;;;15.01;43.72
4981;BME280;2507;50.392;7.482;2023-03-20T13:54:06;101111.56;;;15.13;43.53
4981;BME280;2507;50.392;7.482;2023-03-20T14:02:23;101105.56;;;14.46;44.21
4981;BME280;2507;50.392;7.482;2023-03-20T14:12:55;101101.72;;;14.72;44.94
4981;BME280;2507;50.392;7.482;2023-03-20T14:15:30;101104.94;;;14.65;45.02
4981;BME280;2507;50.392;7.482;2023-03-20T14:17:56;101097.75;;;14.67;45.96
4981;BME280;2507;50.392;7.482;2023-03-20T14:20:37;101101.94;;;14.58;45.49
4981;BME280;2507;50.392;7.482;2023-03-20T14:23:04;101106.03;;;14.51;46.73
4981;BME280;2507;50.392;7.482;2023-03-20T14:25:40;101113.22;;;14.60;46.14
4981;BME280;2507;50.392;7.482;2023-03-20T14:30:42;101108.66;;;14.51;46.02
4981;BME280;2507;50.392;7.482;2023-03-20T14:38:38;101106.25;;;14.70;45.27
4981;BME280;2507;50.392;7.482;2023-03-20T14:41:20;101110.41;;;14.95;45.17
4981;BME280;2507;50.392;7.482;2023-03-20T14:46:23;101109.66;;;15.04;45.58
4981;BME280;2507;50.392;7.482;2023-03-20T14:48:53;101109.81;;;15.34;45.85
4981;BME280;2507;50.392;7.482;2023-03-20T14:53:52;101100.34;;;15.20;45.74
4981;BME280;2507;50.392;7.482;2023-03-20T14:56:26;101095.78;;;15.22;46.29
4981;BME280;2507;50.392;7.482;2023-03-20T14:58:55;101093.50;;;15.29;45.83
4981;BME280;2507;50.392;7.482;2023-03-20T15:03:57;101093.16;;;15.22;45.95
4981;BME280;2507;50.392;7.482;2023-03-20T15:06:26;101092.84;;;15.36;45.90
4981;BME280;2507;50.392;7.482;2023-03-20T15:08:55;101087.09;;;15.31;46.08
4981;BME280;2507;50.392;7.482;2023-03-20T15:11:22;101090.75;;;15.19;45.70
4981;BME280;2507;50.392;7.482;2023-03-20T15:13:49;101080.72;;;15.02;45.93